sensor_id;sensor_type;location;lat;lon;timestamp;pressure;altitude;pressure_sealevel;temperature;humidity
13954;BME280;7049;49.444;8.522;2022-11-11T00:00:23;79584.56;;;-3.47;90.00
13954;BME280;7049;49.444;8.522;2022-11-11T00:05:25;79586.66;;;-3.47;90.05
13954;BME280;7049;49.444;8.522;2022-11-11T00:10:28;79580.38;;;-3.47;89.80
13954;BME280;7049;49.444;8.522;2022-11-11T00:15:31;79590.84;;;-3.47;89.97
13954;BME280;7049;49.444;8.522;2022-11-11T00:20:36;79588.75;;;-3.47;89.90
13954;BME280;7049;49.444;8.522;2022-11-11T00:26:01;79597.13;;;-3.47;89.88
13954;BME280;7049;49.444;8.522;2022-11-11T00:31:07;79595.03;;;-3.47;89.76
13954;BME280;7049;49.444;8.522;2022-11-11T00:36:09;79613.88;;;-3.47;89.77
13954;BME280;7049;49.444;8.522;2022-11-11T00:41:11;79630.63;;;-3.47;89.62
13954;BME280;7049;49.444;8.522;2022-11-11T00:46:15;79639.00;;;-3.47;89.35
13954;BME280;7049;49.444;8.522;2022-11-11T00:51:35;79645.28;;;-3.47;89.44
13954;BME280;7049;49.444;8.522;2022-11-11T00:56:36;79662.03;;;-3.47;89.25
13954;BME280;7049;49.444;8.522;2022-11-11T01:01:39;79668.31;;;-3.47;89.25
13954;BME280;7049;49.444;8.522;2022-11-11T01:06:41;79676.69;;;-3.47;89.55
13954;BME280;7049;49.444;8.522;2022-11-11T01:11:42;79689.25;;;-3.47;89.55
13954;BME280;7049;49.444;8.522;2022-11-11T01:16:45;79685.06;;;-3.47;89.58
13954;BME280;7049;49.444;8.522;2022-11-11T01:21:47;79689.25;;;-3.47;89.59
13954;BME280;7049;49.444;8.522;2022-11-11T01:26:48;79689.25;;;-3.47;89.83
13954;BME280;7049;49.444;8.522;2022-11-11T01:31:51;79689.25;;;-3.47;90.14
13954;BME280;7049;49.444;8.522;2022-11-11T01:36:52;79685.06;;;-3.47;90.76
13954;BME280;7049;49.444;8.522;2022-11-11T01:41:54;79695.53;;;-3.47;91.28
13954;BME280;7049;49.444;8.522;2022-11-11T01:46:59;79697.63;;;-3.47;91.75
13954;BME280;7049;49.444;8.522;2022-11-11T01:52:05;79703.91;;;-3.47;92.49
13954;BME280;7049;49.444;8.522;2022-11-11T01:57:12;79699.72;;;-3.47;92.95
13954;BME280;7049;49.444;8.522;2022-11-11T02:02:21;79701.81;;;-3.47;92.82
13954;BME280;7049;49.444;8.522;2022-11-11T02:07:24;79706.00;;;-3.47;92.68
13954;BME280;7049;49.444;8.522;2022-11-11T02:12:27;79703.91;;;-3.47;92.54
13954;BME280;7049;49.444;8.522;2022-11-11T02:17:48;79703.91;;;-3.47;92.28
13954;BME280;7049;49.444;8.522;2022-11-11T02:22:52;79712.28;;;-3.47;92.24
13954;BME280;7049;49.444;8.522;2022-11-11T02:28:00;79722.75;;;-3.47;92.16
13954;BME280;7049;49.444;8.522;2022-11-11T02:33:03;79726.94;;;-3.47;91.95
13954;BME280;7049;49.444;8.522;2022-11-11T02:38:06;79726.94;;;-3.47;91.60
13954;BME280;7049;49.444;8.522;2022-11-11T02:43:09;79724.84;;;-3.47;92.09
13954;BME280;7049;49.444;8.522;2022-11-11T02:48:11;79726.94;;;-3.47;92.35
13954;BME280;7049;49.444;8.522;2022-11-11T02:53:12;79739.50;;;-3.47;91.92
13954;BME280;7049;49.444;8.522;2022-11-11T02:58:16;79749.97;;;-3.47;91.84
13954;BME280;7049;49.444;8.522;2022-11-11T03:03:17;79756.25;;;-3.47;91.76
13954;BME280;7049;49.444;8.522;2022-11-11T03:08:19;79760.44;;;-3.47;91.67
13954;BME280;7049;49.444;8.522;2022-11-11T03:13:22;79760.44;;;-3.47;91.60
13954;BME280;7049;49.444;8.522;2022-11-11T03:18:23;79762.53;;;-3.47;92.19
13954;BME280;7049;49.444;8.522;2022-11-11T03:23:25;79760.44;;;-3.47;92.90
13954;BME280;7049;49.444;8.522;2022-11-11T03:28:27;79766.72;;;-3.47;93.21
13954;BME280;7049;49.444;8.522;2022-11-11T03:33:29;79781.38;;;-3.47;93.67
13954;BME280;7049;49.444;8.522;2022-11-11T03:38:30;79779.28;;;-3.47;94.19
13954;BME280;7049;49.444;8.522;2022-11-11T03:43:34;79768.81;;;-3.47;94.82
13954;BME280;7049;49.444;8.522;2022-11-11T03:48:35;79777.19;;;-3.47;95.73
13954;BME280;7049;49.444;8.522;2022-11-11T03:53:37;79779.28;;;-3.47;96.23
13954;BME280;7049;49.444;8.522;2022-11-11T03:58:40;79773.00;;;-3.47;96.55
13954;BME280;7049;49.444;8.522;2022-11-11T04:03:41;79775.09;;;-3.47;96.67
13954;BME280;7049;49.444;8.522;2022-11-11T04:09:00;79777.19;;;-3.47;97.04
13954;BME280;7049;49.444;8.522;2022-11-11T04:14:21;79777.19;;;-3.47;97.12
13954;BME280;7049;49.444;8.522;2022-11-11T04:19:39;79785.56;;;-3.47;96.97
13954;BME280;7049;49.444;8.522;2022-11-11T04:24:58;79791.84;;;-3.47;96.90
13954;BME280;7049;49.444;8.522;2022-11-11T04:30:19;79798.13;;;-3.47;96.53
13954;BME280;7049;49.444;8.522;2022-11-11T04:35:20;79810.69;;;-3.47;96.39
13954;BME280;7049;49.444;8.522;2022-11-11T04:40:23;79808.59;;;-3.47;96.18
13954;BME280;7049;49.444;8.522;2022-11-11T04:45:43;79814.88;;;-3.47;96.07
13954;BME280;7049;49.444;8.522;2022-11-11T04:50:45;79819.06;;;-3.47;96.06
13954;BME280;7049;49.444;8.522;2022-11-11T04:55:46;79819.06;;;-3.47;96.18
13954;BME280;7049;49.444;8.522;2022-11-11T05:01:06;79825.34;;;-3.47;95.85
13954;BME280;7049;49.444;8.522;2022-11-11T05:06:08;79823.25;;;-3.47;96.12
13954;BME280;7049;49.444;8.522;2022-11-11T05:11:38;79835.81;;;-3.47;96.21
13954;BME280;7049;49.444;8.522;2022-11-11T05:16:43;79831.63;;;-3.47;96.85
13954;BME280;7049;49.444;8.522;2022-11-11T05:22:08;79827.44;;;-3.47;97.11
13954;BME280;7049;49.444;8.522;2022-11-11T05:27:11;79829.53;;;-3.47;97.28
13954;BME280;7049;49.444;8.522;2022-11-11T05:32:16;79829.53;;;-3.47;97.27
13954;BME280;7049;49.444;8.522;2022-11-11T05:37:18;79831.63;;;-3.47;97.37
13954;BME280;7049;49.444;8.522;2022-11-11T05:42:20;79835.81;;;-3.47;97.72
13954;BME280;7049;49.444;8.522;2022-11-11T05:47:23;79831.63;;;-3.47;98.09
13954;BME280;7049;49.444;8.522;2022-11-11T05:52:24;79827.44;;;-3.47;98.45
13954;BME280;7049;49.444;8.522;2022-11-11T05:57:26;79827.44;;;-3.47;99.27
13954;BME280;7049;49.444;8.522;2022-11-11T06:02:29;79840.00;;;-3.47;99.88
13954;BME280;7049;49.444;8.522;2022-11-11T06:07:30;79821.16;;;-3.47;100.00
13954;BME280;7049;49.444;8.522;2022-11-11T06:12:32;79821.16;;;-3.47;100.00
13954;BME280;7049;49.444;8.522;2022-11-11T06:17:54;79816.97;;;-3.47;100.00
13954;BME280;7049;49.444;8.522;2022-11-11T06:22:56;79825.34;;;-3.47;100.00
13954;BME280;7049;49.444;8.522;2022-11-11T06:27:58;79829.53;;;-3.47;100.00
13954;BME280;7049;49.444;8.522;2022-11-11T06:33:01;79835.81;;;-3.47;100.00
13954;BME280;7049;49.444;8.522;2022-11-11T06:38:03;79831.63;;;-3.47;100.00
13954;BME280;7049;49.444;8.522;2022-11-11T06:43:05;79827.44;;;-3.47;100.00
13954;BME280;7049;49.444;8.522;2022-11-11T06:48:08;79814.88;;;-3.47;100.00
13954;BME280;7049;49.444;8.522;2022-11-11T06:53:10;79810.69;;;-3.47;100.00
13954;BME280;7049;49.444;8.522;2022-11-11T06:58:14;79802.31;;;-3.47;100.00
13954;BME280;7049;49.444;8.522;2022-11-11T07:03:19;79804.41;;;-3.47;100.00
13954;BME280;7049;49.444;8.522;2022-11-11T07:08:21;79806.50;;;-3.47;100.00
13954;BME280;7049;49.444;8.522;2022-11-11T07:13:24;79810.69;;;-3.47;100.00
13954;BME280;7049;49.444;8.522;2022-11-11T07:18:27;79806.50;;;-3.47;100.00
13954;BME280;7049;49.444;8.522;2022-11-11T07:23:28;79816.97;;;-3.47;100.00
13954;BME280;7049;49.444;8.522;2022-11-11T07:28:30;79814.88;;;-3.47;100.00
13954;BME280;7049;49.444;8.522;2022-11-11T07:33:32;79823.25;;;-3.47;100.00
13954;BME280;7049;49.444;8.522;2022-11-11T07:38:34;79842.09;;;-3.47;100.00
13954;BME280;7049;49.444;8.522;2022-11-11T07:43:35;79831.63;;;-3.47;100.00
13954;BME280;7049;49.444;8.522;2022-11-11T07:48:38;79821.16;;;-3.47;100.00
13954;BME280;7049;49.444;8.522;2022-11-11T07:53:40;79812.78;;;-3.47;100.00
13954;BME280;7049;49.444;8.522;2022-11-11T07:58:41;79812.78;;;-3.47;100.00
13954;BME280;7049;49.444;8.522;2022-11-11T08:03:44;79816.97;;;-3.47;100.00
13954;BME280;7049;49.444;8.522;2022-11-11T08:08:49;79802.31;;;-3.47;100.00
13954;BME280;7049;49.444;8.522;2022-11-11T08:13:51;79798.13;;;-3.47;100.00
13954;BME280;7049;49.444;8.522;2022-11-11T08:18:54;79781.38;;;-3.47;100.00
13954;BME280;7049;49.444;8.522;2022-11-11T08:23:57;79773.00;;;-3.47;100.00
13954;BME280;7049;49.444;8.522;2022-11-11T08:28:59;79752.06;;;-3.47;100.00
13954;BME280;7049;49.444;8.522;2022-11-11T08:34:01;79743.69;;;-3.47;100.00
13954;BME280;7049;49.444;8.522;2022-11-11T08:39:03;79724.84;;;-3.47;100.00
13954;BME280;7049;49.444;8.522;2022-11-11T08:44:05;79722.75;;;-3.47;100.00
13954;BME280;7049;49.444;8.522;2022-11-11T08:49:07;79712.28;;;-3.47;100.00
13954;BME280;7049;49.444;8.522;2022-11-11T08:54:10;79714.38;;;-3.47;100.00
13954;BME280;7049;49.444;8.522;2022-11-11T08:59:12;79716.47;;;-3.47;100.00
13954;BME280;7049;49.444;8.522;2022-11-11T09:04:15;79710.19;;;-3.47;100.00
13954;BME280;7049;49.444;8.522;2022-11-11T09:09:16;79710.19;;;-3.47;100.00
13954;BME280;7049;49.444;8.522;2022-11-11T09:14:18;79701.81;;;-3.47;100.00
13954;BME280;7049;49.444;8.522;2022-11-11T09:19:21;79712.28;;;-3.47;100.00
13954;BME280;7049;49.444;8.522;2022-11-11T09:24:22;79718.56;;;-3.47;100.00
13954;BME280;7049;49.444;8.522;2022-11-11T09:29:24;79712.28;;;-3.47;100.00
13954;BME280;7049;49.444;8.522;2022-11-11T09:34:27;79708.09;;;-3.47;100.00
13954;BME280;7049;49.444;8.522;2022-11-11T09:39:28;79708.09;;;-3.47;100.00
13954;BME280;7049;49.444;8.522;2022-11-11T09:44:41;79699.72;;;-3.47;100.00
13954;BME280;7049;49.444;8.522;2022-11-11T09:49:59;79712.28;;;-3.47;100.00
13954;BME280;7049;49.444;8.522;2022-11-11T09:55:14;79697.63;;;-3.47;100.00
13954;BME280;7049;49.444;8.522;2022-11-11T10:00:21;79689.25;;;-3.47;100.00
13954;BME280;7049;49.444;8.522;2022-11-11T10:05:29;79670.41;;;-3.47;100.00
13954;BME280;7049;49.444;8.522;2022-11-11T10:10:38;79662.03;;;-3.47;100.00
13954;BME280;7049;49.444;8.522;2022-11-11T10:15:51;79651.56;;;-3.47;100.00
13954;BME280;7049;49.444;8.522;2022-11-11T10:20:58;79636.91;;;-3.47;100.00
13954;BME280;7049;49.444;8.522;2022-11-11T10:26:06;79630.63;;;-3.47;100.00
13954;BME280;7049;49.444;8.522;2022-11-11T10:31:14;79613.88;;;-3.47;100.00
13954;BME280;7049;49.444;8.522;2022-11-11T10:36:20;79601.31;;;-3.47;100.00
13954;BME280;7049;49.444;8.522;2022-11-11T10:41:28;79601.31;;;-3.47;100.00
13954;BME280;7049;49.444;8.522;2022-11-11T10:46:36;79595.03;;;-3.47;100.00
13954;BME280;7049;49.444;8.522;2022-11-11T10:51:45;79597.13;;;-3.47;100.00
13954;BME280;7049;49.444;8.522;2022-11-11T10:56:57;79580.38;;;-3.47;100.00
13954;BME280;7049;49.444;8.522;2022-11-11T11:02:08;79576.19;;;-3.47;100.00
13954;BME280;7049;49.444;8.522;2022-11-11T11:07:20;79569.91;;;-3.47;100.00
13954;BME280;7049;49.444;8.522;2022-11-11T11:12:31;79567.81;;;-3.47;100.00
13954;BME280;7049;49.444;8.522;2022-11-11T11:17:39;79557.34;;;-3.47;100.00
13954;BME280;7049;49.444;8.522;2022-11-11T11:22:47;79542.69;;;-3.47;100.00
13954;BME280;7049;49.444;8.522;2022-11-11T11:28:05;79538.50;;;-3.47;100.00
13954;BME280;7049;49.444;8.522;2022-11-11T11:33:08;79548.97;;;-3.47;100.00
13954;BME280;7049;49.444;8.522;2022-11-11T11:38:12;79553.16;;;-3.47;100.00
13954;BME280;7049;49.444;8.522;2022-11-11T11:43:30;79536.41;;;-3.47;100.00
13954;BME280;7049;49.444;8.522;2022-11-11T11:48:42;79525.94;;;-3.47;100.00
13954;BME280;7049;49.444;8.522;2022-11-11T11:54:02;79509.19;;;-3.47;100.00
13954;BME280;7049;49.444;8.522;2022-11-11T11:59:12;79509.19;;;-3.47;100.00
13954;BME280;7049;49.444;8.522;2022-11-11T12:04:46;79496.66;;;-3.47;100.00
13954;BME280;7049;49.444;8.522;2022-11-11T12:10:02;79490.38;;;-3.47;100.00
13954;BME280;7049;49.444;8.522;2022-11-11T12:15:16;79482.00;;;-3.47;100.00
13954;BME280;7049;49.444;8.522;2022-11-11T12:20:24;79471.53;;;-3.47;100.00
13954;BME280;7049;49.444;8.522;2022-11-11T12:25:37;79467.34;;;-3.47;100.00
13954;BME280;7049;49.444;8.522;2022-11-11T12:30:47;79475.72;;;-3.47;100.00
13954;BME280;7049;49.444;8.522;2022-11-11T12:35:57;79471.53;;;-3.47;100.00
13954;BME280;7049;49.444;8.522;2022-11-11T12:41:10;79452.69;;;-3.47;100.00
13954;BME280;7049;49.444;8.522;2022-11-11T12:46:25;79450.59;;;-3.47;100.00
13954;BME280;7049;49.444;8.522;2022-11-11T12:51:38;79442.22;;;-3.47;100.00
13954;BME280;7049;49.444;8.522;2022-11-11T12:56:49;79433.84;;;-3.47;100.00
13954;BME280;7049;49.444;8.522;2022-11-11T13:01:59;79438.03;;;-3.47;100.00
13954;BME280;7049;49.444;8.522;2022-11-11T13:07:26;79423.38;;;-3.47;100.00
13954;BME280;7049;49.444;8.522;2022-11-11T13:12:37;79419.19;;;-3.47;100.00
13954;BME280;7049;49.444;8.522;2022-11-11T13:17:44;79417.09;;;-3.47;100.00
13954;BME280;7049;49.444;8.522;2022-11-11T13:22:48;79421.28;;;-3.47;98.93
13954;BME280;7049;49.444;8.522;2022-11-11T13:27:55;79421.28;;;-3.47;99.82
13954;BME280;7049;49.444;8.522;2022-11-11T13:33:01;79421.28;;;-3.47;99.98
13954;BME280;7049;49.444;8.522;2022-11-11T13:38:04;79412.91;;;-3.47;100.00
13954;BME280;7049;49.444;8.522;2022-11-11T13:43:15;79404.53;;;-3.47;100.00
13954;BME280;7049;49.444;8.522;2022-11-11T13:48:22;79419.19;;;-3.47;99.97
13954;BME280;7049;49.444;8.522;2022-11-11T13:53:27;79394.06;;;-3.47;99.87
13954;BME280;7049;49.444;8.522;2022-11-11T13:58:32;79412.91;;;-3.47;99.39
13954;BME280;7049;49.444;8.522;2022-11-11T14:03:58;79410.81;;;-3.47;99.55
13954;BME280;7049;49.444;8.522;2022-11-11T14:09:00;79408.72;;;-3.47;98.98
13954;BME280;7049;49.444;8.522;2022-11-11T14:19:42;79419.19;;;-3.47;99.91
13954;BME280;7049;49.444;8.522;2022-11-11T14:24:45;79421.28;;;-3.47;100.00
13954;BME280;7049;49.444;8.522;2022-11-11T14:29:49;79421.28;;;-3.47;99.01
13954;BME280;7049;49.444;8.522;2022-11-11T14:35:10;79429.66;;;-3.47;99.01
13954;BME280;7049;49.444;8.522;2022-11-11T14:40:23;79450.59;;;-3.47;100.00
13954;BME280;7049;49.444;8.522;2022-11-11T14:46:02;79454.78;;;-3.47;100.00
13954;BME280;7049;49.444;8.522;2022-11-11T14:51:45;79458.97;;;-3.47;100.00
13954;BME280;7049;49.444;8.522;2022-11-11T14:56:56;79446.41;;;-3.47;100.00
13954;BME280;7049;49.444;8.522;2022-11-11T15:02:01;79448.50;;;-3.47;100.00
13954;BME280;7049;49.444;8.522;2022-11-11T15:07:04;79454.78;;;-3.47;100.00
13954;BME280;7049;49.444;8.522;2022-11-11T15:12:23;79452.69;;;-3.47;100.00
13954;BME280;7049;49.444;8.522;2022-11-11T15:17:33;79452.69;;;-3.47;100.00
13954;BME280;7049;49.444;8.522;2022-11-11T15:22:49;79454.78;;;-3.47;100.00
13954;BME280;7049;49.444;8.522;2022-11-11T15:27:55;79463.16;;;-3.47;100.00
13954;BME280;7049;49.444;8.522;2022-11-11T15:33:05;79454.78;;;-3.47;100.00
13954;BME280;7049;49.444;8.522;2022-11-11T15:38:12;79461.06;;;-3.47;100.00
13954;BME280;7049;49.444;8.522;2022-11-11T15:43:17;79458.97;;;-3.47;100.00
13954;BME280;7049;49.444;8.522;2022-11-11T15:48:22;79456.88;;;-3.47;100.00
13954;BME280;7049;49.444;8.522;2022-11-11T15:53:26;79458.97;;;-3.47;100.00
13954;BME280;7049;49.444;8.522;2022-11-11T15:58:30;79458.97;;;-3.47;100.00
13954;BME280;7049;49.444;8.522;2022-11-11T16:03:33;79467.34;;;-3.47;100.00
13954;BME280;7049;49.444;8.522;2022-11-11T16:08:41;79479.91;;;-3.47;100.00
13954;BME280;7049;49.444;8.522;2022-11-11T16:13:45;79486.19;;;-3.47;100.00
13954;BME280;7049;49.444;8.522;2022-11-11T16:18:51;79490.38;;;-3.47;100.00
13954;BME280;7049;49.444;8.522;2022-11-11T16:23:56;79488.28;;;-3.47;100.00
13954;BME280;7049;49.444;8.522;2022-11-11T16:29:00;79496.66;;;-3.47;100.00
13954;BME280;7049;49.444;8.522;2022-11-11T16:34:28;79496.66;;;-3.47;100.00
13954;BME280;7049;49.444;8.522;2022-11-11T16:39:34;79505.03;;;-3.47;100.00
13954;BME280;7049;49.444;8.522;2022-11-11T16:44:38;79509.19;;;-3.47;100.00
13954;BME280;7049;49.444;8.522;2022-11-11T16:49:41;79505.03;;;-3.47;100.00
13954;BME280;7049;49.444;8.522;2022-11-11T16:54:50;79502.94;;;-3.47;100.00
13954;BME280;7049;49.444;8.522;2022-11-11T16:59:56;79505.03;;;-3.47;100.00
13954;BME280;7049;49.444;8.522;2022-11-11T17:05:00;79494.56;;;-3.47;100.00
13954;BME280;7049;49.444;8.522;2022-11-11T17:10:16;79486.19;;;-3.47;100.00
13954;BME280;7049;49.444;8.522;2022-11-11T17:15:20;79484.09;;;-3.47;100.00
13954;BME280;7049;49.444;8.522;2022-11-11T17:20:23;79479.91;;;-3.47;100.00
13954;BME280;7049;49.444;8.522;2022-11-11T17:25:30;79486.19;;;-3.47;100.00
13954;BME280;7049;49.444;8.522;2022-11-11T17:30:34;79492.47;;;-3.47;100.00
13954;BME280;7049;49.444;8.522;2022-11-11T17:35:49;79494.56;;;-3.47;100.00
13954;BME280;7049;49.444;8.522;2022-11-11T17:40:53;79498.72;;;-3.47;100.00
13954;BME280;7049;49.444;8.522;2022-11-11T17:46:00;79509.19;;;-3.47;100.00
13954;BME280;7049;49.444;8.522;2022-11-11T17:51:03;79505.03;;;-3.47;100.00
13954;BME280;7049;49.444;8.522;2022-11-11T17:56:07;79513.41;;;-3.47;100.00
13954;BME280;7049;49.444;8.522;2022-11-11T18:01:11;79523.84;;;-3.47;100.00
13954;BME280;7049;49.444;8.522;2022-11-11T18:06:14;79509.19;;;-3.47;100.00
13954;BME280;7049;49.444;8.522;2022-11-11T18:11:17;79517.56;;;-3.47;100.00
13954;BME280;7049;49.444;8.522;2022-11-11T18:16:19;79511.28;;;-3.47;100.00
13954;BME280;7049;49.444;8.522;2022-11-11T18:21:21;79515.47;;;-3.47;100.00
13954;BME280;7049;49.444;8.522;2022-11-11T18:26:24;79517.56;;;-3.47;100.00
13954;BME280;7049;49.444;8.522;2022-11-11T18:31:25;79525.94;;;-3.47;100.00
13954;BME280;7049;49.444;8.522;2022-11-11T18:36:27;79525.94;;;-3.47;100.00
13954;BME280;7049;49.444;8.522;2022-11-11T18:41:30;79538.50;;;-3.47;100.00
13954;BME280;7049;49.444;8.522;2022-11-11T18:46:34;79530.13;;;-3.47;100.00
13954;BME280;7049;49.444;8.522;2022-11-11T18:51:36;79530.13;;;-3.47;100.00
13954;BME280;7049;49.444;8.522;2022-11-11T18:56:39;79525.94;;;-3.47;100.00
13954;BME280;7049;49.444;8.522;2022-11-11T19:01:41;79521.75;;;-3.47;100.00
13954;BME280;7049;49.444;8.522;2022-11-11T19:06:42;79523.84;;;-3.47;100.00
13954;BME280;7049;49.444;8.522;2022-11-11T19:11:46;79528.03;;;-3.47;100.00
13954;BME280;7049;49.444;8.522;2022-11-11T19:16:49;79525.94;;;-3.47;100.00
13954;BME280;7049;49.444;8.522;2022-11-11T19:21:52;79530.13;;;-3.47;100.00
13954;BME280;7049;49.444;8.522;2022-11-11T19:26:57;79532.22;;;-3.47;100.00
13954;BME280;7049;49.444;8.522;2022-11-11T19:32:00;79530.13;;;-3.47;100.00
13954;BME280;7049;49.444;8.522;2022-11-11T19:37:03;79530.13;;;-3.47;100.00
13954;BME280;7049;49.444;8.522;2022-11-11T19:42:13;79528.03;;;-3.47;100.00
13954;BME280;7049;49.444;8.522;2022-11-11T19:47:18;79525.94;;;-3.47;100.00
13954;BME280;7049;49.444;8.522;2022-11-11T19:52:24;79534.31;;;-3.47;100.00
13954;BME280;7049;49.444;8.522;2022-11-11T19:57:32;79546.88;;;-3.47;100.00
13954;BME280;7049;49.444;8.522;2022-11-11T20:02:37;79553.16;;;-3.47;100.00
13954;BME280;7049;49.444;8.522;2022-11-11T20:07:40;79555.25;;;-3.47;100.00
13954;BME280;7049;49.444;8.522;2022-11-11T20:12:44;79563.63;;;-3.47;100.00
13954;BME280;7049;49.444;8.522;2022-11-11T20:17:47;79567.81;;;-3.47;100.00
13954;BME280;7049;49.444;8.522;2022-11-11T20:22:50;79567.81;;;-3.47;100.00
13954;BME280;7049;49.444;8.522;2022-11-11T20:27:57;79572.00;;;-3.47;100.00
13954;BME280;7049;49.444;8.522;2022-11-11T20:33:03;79567.81;;;-3.47;100.00
13954;BME280;7049;49.444;8.522;2022-11-11T20:38:05;79559.44;;;-3.47;100.00
13954;BME280;7049;49.444;8.522;2022-11-11T20:43:10;79569.91;;;-3.47;100.00
13954;BME280;7049;49.444;8.522;2022-11-11T20:48:12;79576.19;;;-3.47;100.00
13954;BME280;7049;49.444;8.522;2022-11-11T20:53:14;79580.38;;;-3.47;100.00
13954;BME280;7049;49.444;8.522;2022-11-11T20:58:17;79574.09;;;-3.47;100.00
13954;BME280;7049;49.444;8.522;2022-11-11T21:03:21;79572.00;;;-3.47;100.00
13954;BME280;7049;49.444;8.522;2022-11-11T21:08:24;79572.00;;;-3.47;100.00
13954;BME280;7049;49.444;8.522;2022-11-11T21:13:28;79574.09;;;-3.47;100.00
13954;BME280;7049;49.444;8.522;2022-11-11T21:18:30;79576.19;;;-3.47;100.00
13954;BME280;7049;49.444;8.522;2022-11-11T21:23:32;79580.38;;;-3.47;100.00
13954;BME280;7049;49.444;8.522;2022-11-11T21:28:37;79578.28;;;-3.47;100.00
13954;BME280;7049;49.444;8.522;2022-11-11T21:33:38;79586.66;;;-3.47;100.00
13954;BME280;7049;49.444;8.522;2022-11-11T21:38:40;79586.66;;;-3.47;100.00
13954;BME280;7049;49.444;8.522;2022-11-11T21:43:45;79592.94;;;-3.47;100.00
13954;BME280;7049;49.444;8.522;2022-11-11T21:48:47;79595.03;;;-3.47;100.00
13954;BME280;7049;49.444;8.522;2022-11-11T21:53:50;79588.75;;;-3.47;100.00
13954;BME280;7049;49.444;8.522;2022-11-11T21:58:56;79590.84;;;-3.47;100.00
13954;BME280;7049;49.444;8.522;2022-11-11T22:03:59;79588.75;;;-3.47;100.00
13954;BME280;7049;49.444;8.522;2022-11-11T22:09:02;79586.66;;;-3.47;100.00
13954;BME280;7049;49.444;8.522;2022-11-11T22:14:05;79601.31;;;-3.47;100.00
13954;BME280;7049;49.444;8.522;2022-11-11T22:19:10;79592.94;;;-3.47;100.00
13954;BME280;7049;49.444;8.522;2022-11-11T22:24:12;79595.03;;;-3.47;100.00
13954;BME280;7049;49.444;8.522;2022-11-11T22:29:15;79588.75;;;-3.47;100.00
13954;BME280;7049;49.444;8.522;2022-11-11T22:34:17;79592.94;;;-3.47;100.00
13954;BME280;7049;49.444;8.522;2022-11-11T22:39:18;79592.94;;;-3.47;100.00
13954;BME280;7049;49.444;8.522;2022-11-11T22:44:21;79607.59;;;-3.47;100.00
13954;BME280;7049;49.444;8.522;2022-11-11T22:49:22;79613.88;;;-3.47;100.00
13954;BME280;7049;49.444;8.522;2022-11-11T22:54:25;79626.44;;;-3.47;100.00
13954;BME280;7049;49.444;8.522;2022-11-11T22:59:28;79622.25;;;-3.47;100.00
13954;BME280;7049;49.444;8.522;2022-11-11T23:04:30;79624.34;;;-3.47;100.00
13954;BME280;7049;49.444;8.522;2022-11-11T23:09:31;79613.88;;;-3.47;100.00
13954;BME280;7049;49.444;8.522;2022-11-11T23:14:37;79607.59;;;-3.47;100.00
13954;BME280;7049;49.444;8.522;2022-11-11T23:19:38;79607.59;;;-3.47;100.00
13954;BME280;7049;49.444;8.522;2022-11-11T23:24:40;79601.31;;;-3.47;100.00
13954;BME280;7049;49.444;8.522;2022-11-11T23:29:42;79609.69;;;-3.47;100.00
13954;BME280;7049;49.444;8.522;2022-11-11T23:34:44;79609.69;;;-3.47;100.00
13954;BME280;7049;49.444;8.522;2022-11-11T23:39:45;79607.59;;;-3.47;100.00
13954;BME280;7049;49.444;8.522;2022-11-11T23:44:48;79601.31;;;-3.47;100.00
13954;BME280;7049;49.444;8.522;2022-11-11T23:49:50;79611.78;;;-3.47;100.00
13954;BME280;7049;49.444;8.522;2022-11-11T23:54:51;79601.31;;;-3.47;100.00
13954;BME280;7049;49.444;8.522;2022-11-11T23:59:54;79601.31;;;-3.47;100.00
